Latest Weather Observations for Fortescue Dave Forrest

IDW60801

Issued at 5:35 pm WST Sunday 21 September 2014 (issued every 30 minutes, with the page automatically refreshed every 10 minutes)

About weather observations | Map of weather stations | Latest weather observations for WA | Other Formats
Station Details ID: 505056 Name: FORTESCUE DAVE FORREST Lat: -22.29 Lon: 119.43 Height: 474.6 m
Data from the previous 72 hours. | See also: Recent months for locations in Western Australia
Date/Time
WST
Temp
°C
App
Temp
°C
Dew
Point
Rel
Hum
%
Delta-T
°C
Wind Press
QNH
hPa
Press
MSL
hPa
Rain
since 9 am
mm
Dir
 
Spd
km/h
Gust
km/h
Spd
kts
Gust
kts
21/05:30pm 33.8 27.4 0.8 12 16.7 NW 24 33 13 18 1014.1 1012.1 0.0
21/05:00pm 34.3 27.5 0.7 12 17.1 WNW 26 35 14 19 1013.9 1011.9 0.0
21/04:30pm 35.4 28.2 0.9 11 17.7 NNW 28 52 15 28 1013.7 1011.7 0.0
21/04:26pm 35.1 27.9 0.7 11 17.6 NNW 28 52 15 28 1013.5 1011.4 0.0
21/04:00pm 34.9 28.1 0.7 11 17.4 NNW 26 43 14 23 1013.6 1011.5 0.0
21/03:30pm 36.1 28.8 0.1 10 18.3 NNW 28 39 15 21 1013.9 1011.9 0.0
21/03:00pm 36.3 29.1 0.4 10 18.4 NNW 28 46 15 25 1014.0 1012.0 0.0
21/02:53pm 35.9 28.7 0.6 11 18.1 NW 28 46 15 25 1014.0 1012.0 0.0
21/02:30pm 35.6 28.4 0.7 11 17.9 NNW 28 39 15 21 1014.3 1012.3 0.0
21/02:00pm 35.7 28.8 0.3 10 18.0 NNW 26 43 14 23 1014.5 1012.5 0.0
21/01:30pm 35.0 29.9 0.6 11 17.5 NNE 17 30 9 16 1015.0 1013.0 0.0
21/01:00pm 35.8 30.2 1.0 11 17.9 NW 20 26 11 14 1015.4 1013.5 0.0
21/12:30pm 34.6 27.0 0.5 11 17.3 NNW 30 43 16 23 1016.2 1014.2 0.0
21/12:00pm 34.7 30.8 0.9 12 17.2 NW 11 37 6 20 1016.7 1014.7 0.0
21/11:30am 34.5 30.6 1.3 12 17.0 WSW 11 19 6 10 1017.2 1015.2 0.0
21/11:00am 33.0 29.0 2.6 14 15.8 W 13 24 7 13 1017.8 1015.9 0.0
21/10:30am 32.3 28.7 3.1 15 15.2 WSW 11 20 6 11 1018.5 1016.5 0.0
21/10:00am 31.3 27.4 3.5 17 14.5 SW 13 19 7 10 1018.8 1016.8 0.0
21/09:30am 29.9 25.7 3.8 19 13.6 SW 15 20 8 11 1019.0 1017.0 0.0
21/09:00am 29.1 25.6 3.7 19 13.1 SW 11 17 6 9 1019.2 1017.3 0.0
21/08:30am 28.6 25.5 3.5 20 12.9 S 9 13 5 7 1018.9 1016.9 0.0
21/08:00am 26.8 24.1 3.7 22 11.8 SSW 7 11 4 6 1018.7 1016.7 0.0
21/07:30am 25.0 22.9 4.0 25 10.6 SW 4 6 2 3 1018.5 1016.5 0.0
21/07:00am 21.5 19.4 4.1 32 8.6 SW 4 4 2 2 1018.1 1016.1 0.0
21/06:30am 20.7 18.1 3.2 31 8.5 SW 6 7 3 4 1017.5 1015.6 0.0
21/06:00am 19.7 17.7 2.4 31 8.2 WNW 2 6 1 3 1017.4 1015.5 0.0
21/05:30am 20.2 17.8 2.4 30 8.5 W 4 6 2 3 1017.0 1015.0 0.0
21/05:00am 21.0 18.3 2.5 29 8.9 SW 6 7 3 4 1016.7 1014.7 0.0
21/04:30am 20.7 18.0 2.4 29 8.7 W 6 7 3 4 1016.7 1014.7 0.0
21/04:00am 22.2 19.4 2.3 27 9.6 W 6 9 3 5 1016.6 1014.6 0.0
21/03:30am 21.8 18.8 2.3 27 9.4 W 7 13 4 7 1016.6 1014.6 0.0
21/03:00am 23.2 20.5 2.4 25 10.1 NNW 6 9 3 5 1016.6 1014.6 0.0
21/02:30am 24.7 21.7 2.3 23 11.0 WSW 7 11 4 6 1016.6 1014.6 0.0
21/02:00am 24.8 20.3 2.3 23 11.0 W 15 19 8 10 1016.9 1014.9 0.0
21/01:30am 24.8 21.0 2.0 22 11.1 WNW 11 19 6 10 1017.1 1015.1 0.0
21/01:00am 24.1 21.2 1.6 23 10.8 W 6 9 3 5 1017.1 1015.1 0.0
21/12:30am 26.5 22.7 1.5 19 12.2 W 11 15 6 8 1017.3 1015.4 0.0
21/12:00am 25.0 21.1 1.1 21 11.5 W 11 13 6 7 1017.6 1015.7 0.0
 
Date/Time
WST
Temp
°C
App
Temp
°C
Dew
Point
Rel
Hum
%
Delta-T
°C
Wind Press
QNH
hPa
Press
MSL
hPa
Rain
since 9 am
mm
Dir
 
Spd
km/h
Gust
km/h
Spd
kts
Gust
kts
20/11:30pm 25.1 20.8 1.0 20 11.6 WNW 13 17 7 9 1017.7 1015.8 0.0
20/11:00pm 25.3 22.3 0.9 20 11.7 WNW 6 7 3 4 1017.8 1015.9 0.0
20/10:30pm 26.0 22.8 0.8 19 12.1 NW 7 7 4 4 1017.8 1015.9 0.0
20/10:00pm 25.7 22.1 0.7 19 12.0 NW 9 9 5 5 1018.0 1016.0 0.0
20/09:30pm 26.7 23.1 0.6 18 12.6 NNW 9 11 5 6 1018.2 1016.2 0.0
20/09:00pm 25.8 22.6 0.8 19 12.0 NW 7 9 4 5 1018.3 1016.3 0.0
20/08:30pm 26.3 23.3 0.7 19 12.3 NNW 6 7 3 4 1018.1 1016.1 0.0
20/08:00pm 26.9 23.9 0.7 18 12.7 NW 6 7 3 4 1017.7 1015.8 0.0
20/07:30pm 27.3 24.3 0.7 17 12.9 NNW 6 7 3 4 1017.4 1015.5 0.0
20/07:00pm 28.7 25.1 0.7 16 13.7 N 9 11 5 6 1017.0 1015.0 0.0
20/06:30pm 30.1 26.5 0.5 15 14.6 NNW 9 11 5 6 1016.7 1014.7 0.0
20/06:00pm 31.7 28.1 0.5 13 15.5 N 9 13 5 7 1016.3 1014.3 0.0
20/05:30pm 33.1 28.7 0.3 12 16.4 NNW 13 17 7 9 1016.0 1014.0 0.0
20/05:00pm 33.8 29.8 0.3 12 16.8 WNW 11 20 6 11 1015.9 1013.9 0.0
20/04:30pm 33.8 28.6 -0.2 11 17.0 NNW 17 24 9 13 1015.7 1013.7 0.0
20/04:00pm 33.8 29.0 0.1 11 16.9 NNW 15 24 8 13 1015.4 1013.5 0.0
20/03:30pm 33.9 29.8 -0.4 11 17.1 N 11 22 6 12 1015.4 1013.5 0.0
20/03:00pm 34.7 31.4 0.2 11 17.4 NW 7 22 4 12 1015.3 1013.3 0.0
20/02:30pm 34.2 30.5 0.0 11 17.2 NW 9 15 5 8 1015.7 1013.7 0.0
20/02:00pm 34.1 28.3 -0.2 11 17.1 WNW 20 32 11 17 1015.8 1013.8 0.0
20/01:30pm 33.7 27.6 0.1 12 16.8 N 22 33 12 18 1016.2 1014.2 0.0
20/01:00pm 33.4 28.9 -0.1 12 16.7 NE 13 26 7 14 1016.6 1014.6 0.0
20/12:30pm 33.8 26.9 0.4 12 16.8 N 26 32 14 17 1017.0 1015.0 0.0
20/12:00pm 32.9 28.1 0.4 12 16.3 NNE 15 28 8 15 1017.4 1015.5 0.0
20/11:30am 33.0 28.2 0.2 12 16.4 NNW 15 32 8 17 1018.1 1016.1 0.0
20/11:00am 32.9 28.5 0.1 12 16.3 NNW 13 22 7 12 1018.3 1016.3 0.0
20/10:30am 31.7 28.0 -0.3 13 15.7 WSW 9 15 5 8 1018.7 1016.7 0.0
20/10:00am 30.4 26.6 -0.4 13 15.0 SW 9 13 5 7 1019.1 1017.1 0.0
20/09:30am 30.1 27.3 -0.5 14 14.8 W 4 9 2 5 1019.2 1017.3 0.0
20/09:00am 29.0 26.3 0.2 15 14.0 WSW 4 9 2 5 1019.2 1017.3 0.0
20/08:30am 27.7 24.9 -0.1 16 13.3 NW 4 7 2 4 1019.2 1017.3 0.0
20/08:00am 26.3 23.5 -0.1 17 12.5 SSW 4 7 2 4 1018.7 1016.7 0.0
20/07:30am 25.0 22.5 1.5 21 11.4 E 4 11 2 6 1018.1 1016.1 0.0
20/07:00am 21.5 18.7 2.0 27 9.3 E 6 9 3 5 1017.8 1015.9 0.0
20/06:30am 19.8 17.7 1.5 29 8.5 W 2 4 1 2 1017.5 1015.6 0.0
20/06:00am 19.9 17.0 1.3 29 8.6 WNW 6 9 3 5 1017.3 1015.4 0.0
20/05:30am 20.9 18.0 1.2 27 9.2 W 6 7 3 4 1016.9 1014.9 0.0
20/05:00am 21.6 18.7 1.3 26 9.5 W 6 9 3 5 1016.7 1014.7 0.0
20/04:30am 21.9 18.8 1.3 25 9.7 W 7 13 4 7 1016.6 1014.6 0.0
20/04:00am 21.6 18.1 1.4 26 9.5 W 9 13 5 7 1016.3 1014.3 0.0
20/03:30am 22.7 18.1 1.4 24 10.1 W 15 19 8 10 1016.3 1014.3 0.0
20/03:00am 23.1 18.1 1.6 24 10.3 WNW 17 22 9 12 1016.3 1014.3 0.0
20/02:30am 23.4 18.5 1.7 24 10.4 WNW 17 20 9 11 1016.5 1014.5 0.0
20/02:00am 23.5 18.9 1.3 23 10.6 WNW 15 19 8 10 1016.7 1014.7 0.0
20/01:30am 23.8 19.5 0.7 22 10.9 W 13 19 7 10 1016.9 1014.9 0.0
20/01:00am 23.8 19.0 0.5 21 11.0 W 15 19 8 10 1017.1 1015.1 0.0
20/12:30am 24.7 19.9 0.5 20 11.5 W 15 20 8 11 1017.3 1015.4 0.0
20/12:00am 25.6 20.8 0.4 19 12.0 WNW 15 20 8 11 1017.4 1015.5 0.0
 
Date/Time
WST
Temp
°C
App
Temp
°C
Dew
Point
Rel
Hum
%
Delta-T
°C
Wind Press
QNH
hPa
Press
MSL
hPa
Rain
since 9 am
mm
Dir
 
Spd
km/h
Gust
km/h
Spd
kts
Gust
kts
19/11:30pm 25.6 21.2 0.3 19 12.0 WNW 13 17 7 9 1017.5 1015.6 0.0
19/11:00pm 25.5 20.6 -0.2 18 12.1 WNW 15 20 8 11 1017.6 1015.7 0.0
19/10:30pm 24.4 21.0 -0.6 19 11.6 WNW 7 9 4 5 1017.8 1015.9 0.0
19/10:00pm 25.6 22.2 -0.8 17 12.3 WNW 7 11 4 6 1018.0 1016.0 0.0
19/09:30pm 25.5 21.7 -0.8 17 12.3 NW 9 11 5 6 1018.1 1016.1 0.0
19/09:00pm 25.6 21.8 -1.0 17 12.3 NW 9 11 5 6 1018.1 1016.1 0.0
19/08:30pm 26.4 22.6 -1.0 16 12.8 NW 9 13 5 7 1018.1 1016.1 0.0
19/08:00pm 27.0 23.1 -1.3 15 13.2 NW 9 11 5 6 1017.7 1015.8 0.0
19/07:30pm 26.9 23.4 -1.3 15 13.2 NW 7 9 4 5 1017.3 1015.4 0.0
19/07:00pm 28.0 24.1 -1.4 14 13.8 NNW 9 11 5 6 1017.0 1015.0 0.0
19/06:30pm 29.1 24.8 -1.4 13 14.4 NNW 11 13 6 7 1016.5 1014.5 0.0
19/06:00pm 30.8 26.5 -1.3 12 15.4 NNW 11 15 6 8 1016.0 1014.0 0.0
19/05:30pm 32.1 27.1 -1.4 11 16.2 NNW 15 20 8 11 1015.8 1013.8 0.0
19/05:00pm 32.8 28.2 -0.9 11 16.5 NNW 13 20 7 11 1015.5 1013.6 0.0
19/04:30pm 33.0 28.4 -0.8 11 16.6 NNW 13 30 7 16 1015.2 1013.2 0.0
19/04:00pm 33.1 27.8 -0.7 11 16.6 NW 17 22 9 12 1015.1 1013.1 0.0
19/03:30pm 32.9 28.5 0.3 12 16.3 WNW 13 20 7 11 1015.1 1013.1 0.0
19/03:00pm 33.0 28.6 0.3 12 16.4 NNW 13 22 7 12 1015.4 1013.5 0.0
19/02:30pm 33.6 29.9 0.2 12 16.8 W 9 22 5 12 1015.4 1013.5 0.0
19/02:00pm 33.3 29.0 0.9 12 16.4 WNW 13 22 7 12 1015.8 1013.8 0.0
19/01:30pm 32.5 27.8 1.0 13 15.9 N 15 32 8 17 1016.2 1014.2 0.0
19/01:00pm 32.5 29.4 1.1 13 15.9 N 7 19 4 10 1016.6 1014.6 0.0
19/12:30pm 32.3 26.8 0.9 13 15.8 WNW 19 28 10 15 1017.0 1015.0 0.0
19/12:00pm 32.0 26.4 1.2 14 15.5 NNW 20 28 11 15 1017.4 1015.5 0.0
19/11:30am 31.9 28.8 1.5 14 15.4 NNE 7 19 4 10 1018.1 1016.1 0.0
19/11:00am 31.1 26.8 1.2 14 15.0 ESE 13 22 7 12 1018.6 1016.6 0.0
19/10:30am 30.8 25.8 1.1 15 14.9 SSE 17 30 9 16 1018.9 1016.9 0.0
19/10:00am 30.1 24.7 1.4 16 14.3 ESE 19 28 10 15 1019.4 1017.5 0.0
19/09:30am 28.9 23.9 1.6 17 13.6 SE 17 24 9 13 1019.5 1017.6 0.0
19/09:00am 28.1 23.1 1.3 17 13.2 SE 17 26 9 14 1019.5 1017.6 -
19/08:30am 26.5 22.2 1.2 19 12.3 SSE 13 19 7 10 1019.5 1017.6 -
19/08:00am 25.2 21.3 1.0 20 11.6 SSE 11 15 6 8 1019.4 1017.5 -
19/07:30am 24.0 20.5 1.0 22 11.0 SSE 9 13 5 7 1019.0 1017.0 -
19/07:00am 20.7 17.7 1.1 27 9.1 E 6 7 3 4 1018.8 1016.8 -
19/06:30am 18.0 15.6 -0.3 29 8.1 NNE 2 6 1 3 1018.5 1016.5 -
19/06:00am 18.8 16.0 -0.4 27 8.5 NE 4 7 2 4 1018.0 1016.0 -
19/05:30am 18.3 15.9 -0.5 28 8.3 W 2 2 1 1 1017.6 1015.7 -
19/05:00am 18.4 16.0 -0.6 27 8.4 WNW 2 4 1 2 1017.4 1015.5 -
19/04:30am 19.7 17.3 -0.5 25 9.0 WSW 2 4 1 2 1017.4 1015.5 -
19/04:00am 21.7 17.9 -0.6 22 10.1 WSW 9 15 5 8 1017.0 1015.0 -
19/03:30am 21.0 17.6 -0.7 23 9.8 W 7 11 4 6 1017.1 1015.1 -
19/03:00am 22.0 18.2 -0.8 22 10.3 WSW 9 15 5 8 1017.0 1015.0 -
19/02:30am 22.7 18.5 -0.9 20 10.7 WSW 11 15 6 8 1017.1 1015.1 -
19/02:00am 21.5 18.1 -0.9 22 10.1 WSW 7 13 4 7 1017.2 1015.2 -
19/01:30am 22.5 18.7 -0.5 21 10.5 W 9 13 5 7 1017.3 1015.4 -
19/01:00am 23.3 19.6 0.0 21 10.8 WSW 9 13 5 7 1017.4 1015.5 -
19/12:30am 24.8 20.1 0.7 20 11.5 W 15 20 8 11 1017.3 1015.4 -
19/12:00am 25.1 20.0 0.8 20 11.6 WNW 17 22 9 12 1017.3 1015.4 -
 
Date/Time
WST
Temp
°C
App
Temp
°C
Dew
Point
Rel
Hum
%
Delta-T
°C
Wind Press
QNH
hPa
Press
MSL
hPa
Rain
since 9 am
mm
Dir
 
Spd
km/h
Gust
km/h
Spd
kts
Gust
kts
18/11:30pm 25.2 20.4 0.3 19 11.8 WNW 15 20 8 11 1017.5 1015.6 -

Other Formats:

Comma delimited format used in spreadsheet applications
http://www.bom.gov.au/fwo/IDW60801/IDW60801.99736.axf

JavaScript Object Notation format (JSON) in row-major order
http://www.bom.gov.au/fwo/IDW60801/IDW60801.99736.json